Time,TemperatureF,DewpointF,PressureIn,WindDirection,WindDirectionDegrees,WindSpeedMPH,WindSpeedGustMPH,Humidity,HourlyPrecipIn,Conditions,Clouds,dailyrainin,SoftwareType,DateUTC
2013-04-24 00:01:00,30.3,21.3,30.05,NW,319,3.5,3.5,69,0.00,RA,,0.00,WeatherDisplay:10.37,2013-04-24 05:01:00,
2013-04-24 00:06:00,30.1,21.5,30.05,WNW,297,3.5,3.5,70,0.00,RA,,0.00,WeatherDisplay:10.37,2013-04-24 05:06:00,
2013-04-24 00:11:00,30.0,21.4,30.05,NW,304,3.5,3.5,70,0.00,CLR,,0.00,WeatherDisplay:10.37,2013-04-24 05:11:00,
2013-04-24 00:16:00,29.8,21.2,30.05,NW,304,3.5,3.5,70,0.00,CLR,,0.00,WeatherDisplay:10.37,2013-04-24 05:16:00,
2013-04-24 00:21:00,29.7,21.1,30.05,NW,304,4.6,4.6,70,0.00,CLR,,0.00,WeatherDisplay:10.37,2013-04-24 05:21:00,
2013-04-24 00:26:00,29.7,21.1,30.05,NW,304,4.6,4.6,70,0.00,CLR,,0.00,WeatherDisplay:10.37,2013-04-24 05:26:00,
2013-04-24 00:31:00,29.7,21.1,30.05,NW,304,2.3,2.3,70,0.00,CLR,,0.00,WeatherDisplay:10.37,2013-04-24 05:31:00,
2013-04-24 00:36:00,29.5,21.3,30.05,NW,304,3.5,3.5,71,0.00,CLR,,0.00,WeatherDisplay:10.37,2013-04-24 05:36:00,
2013-04-24 00:41:00,29.4,21.2,30.05,NW,304,1.1,1.1,71,0.00,CLR,,0.00,WeatherDisplay:10.37,2013-04-24 05:41:00,
2013-04-24 00:46:00,29.4,21.2,30.05,NW,304,2.3,2.3,71,0.00,CLR,,0.00,WeatherDisplay:10.37,2013-04-24 05:46:00,
2013-04-24 00:51:00,29.3,21.1,30.05,NW,304,1.1,1.1,71,0.00,CLR,,0.00,WeatherDisplay:10.37,2013-04-24 05:51:00,
2013-04-24 00:56:00,29.1,20.9,30.05,NW,304,3.5,3.5,71,0.00,CLR,,0.00,WeatherDisplay:10.37,2013-04-24 05:56:00,
2013-04-24 01:01:00,29.3,21.4,30.05,NW,304,3.5,3.5,72,0.00,CLR,,0.00,WeatherDisplay:10.37,2013-04-24 06:01:00,
2013-04-24 01:06:00,29.1,21.2,30.05,NW,304,3.5,3.5,72,0.00,CLR,,0.00,WeatherDisplay:10.37,2013-04-24 06:06:00,
2013-04-24 01:11:00,29.1,21.2,30.05,NW,304,3.5,3.5,72,0.00,CLR,,0.00,WeatherDisplay:10.37,2013-04-24 06:11:00,
2013-04-24 01:16:00,29.0,21.1,30.05,NW,304,0.0,0.0,72,0.00,CLR,,0.00,WeatherDisplay:10.37,2013-04-24 06:16:00,
2013-04-24 01:21:00,28.8,20.9,30.05,NW,304,2.3,2.3,72,0.00,CLR,,0.00,WeatherDisplay:10.37,2013-04-24 06:21:00,
2013-04-24 01:26:00,28.8,20.9,30.05,NW,304,0.0,0.0,72,0.00,CLR,,0.00,WeatherDisplay:10.37,2013-04-24 06:26:00,
2013-04-24 01:31:00,28.8,20.9,30.04,NW,304,1.1,1.1,72,0.00,CLR,,0.00,WeatherDisplay:10.37,2013-04-24 06:31:00,
2013-04-24 01:36:00,28.7,21.1,30.04,NW,304,2.3,2.3,73,0.00,CLR,,0.00,WeatherDisplay:10.37,2013-04-24 06:36:00,
2013-04-24 01:41:00,28.7,21.1,30.04,NW,304,3.0,3.0,73,0.00,CLR,,0.00,WeatherDisplay:10.37,2013-04-24 06:41:00,
2013-04-24 01:46:00,28.7,21.1,30.04,NW,304,2.3,0.0,73,0.00,CLR,,0.00,WeatherDisplay:10.37,2013-04-24 06:46:00,
2013-04-24 01:51:00,28.7,21.1,30.04,NW,304,1.0,0.0,73,0.00,CLR,,0.00,WeatherDisplay:10.37,2013-04-24 06:51:00,
2013-04-24 01:56:00,28.5,20.9,30.04,NW,304,2.3,0.0,73,0.00,CLR,,0.00,WeatherDisplay:10.37,2013-04-24 06:56:00,
2013-04-24 02:01:00,28.4,20.8,30.04,NW,304,0.0,0.0,73,0.00,CLR,,0.00,WeatherDisplay:10.37,2013-04-24 07:01:00,
2013-04-24 02:06:00,28.2,21.0,30.04,NW,304,1.1,0.0,74,0.00,CLR,,0.00,WeatherDisplay:10.37,2013-04-24 07:06:00,
2013-04-24 02:11:00,28.2,21.0,30.04,NW,304,3.0,3.0,74,0.00,CLR,,0.00,WeatherDisplay:10.37,2013-04-24 07:11:00,
2013-04-24 02:16:00,28.2,21.0,30.04,NW,304,1.1,1.1,74,0.00,CLR,,0.00,WeatherDisplay:10.37,2013-04-24 07:16:00,
2013-04-24 02:21:00,28.1,20.9,30.04,NW,304,2.3,2.3,74,0.00,CLR,,0.00,WeatherDisplay:10.37,2013-04-24 07:21:00,
2013-04-24 02:26:00,27.9,21.0,30.04,NW,304,3.0,3.0,75,0.00,CLR,,0.00,WeatherDisplay:10.37,2013-04-24 07:26:00,
2013-04-24 02:31:00,27.9,21.3,30.03,NW,304,3.5,3.5,76,0.00,CLR,,0.00,WeatherDisplay:10.37,2013-04-24 07:31:00,
2013-04-24 02:36:00,27.8,21.2,30.03,NW,304,3.5,3.5,76,0.00,CLR,,0.00,WeatherDisplay:10.37,2013-04-24 07:36:00,
2013-04-24 02:41:00,27.8,21.2,30.03,NW,304,2.3,2.3,76,0.00,CLR,,0.00,WeatherDisplay:10.37,2013-04-24 07:41:00,
2013-04-24 02:46:00,27.6,21.0,30.04,NW,304,3.5,3.5,76,0.00,CLR,,0.00,WeatherDisplay:10.37,2013-04-24 07:46:00,
2013-04-24 02:51:00,27.6,21.3,30.04,NW,304,4.0,4.0,77,0.00,CLR,,0.00,WeatherDisplay:10.37,2013-04-24 07:51:00,
2013-04-24 02:56:00,27.6,21.6,30.04,WSW,251,3.5,3.5,78,0.00,CLR,,0.00,WeatherDisplay:10.37,2013-04-24 07:56:00,
2013-04-24 03:01:00,27.5,21.5,30.04,WSW,251,3.5,3.5,78,0.00,CLR,,0.00,WeatherDisplay:10.37,2013-04-24 08:01:00,
2013-04-24 03:06:00,27.5,21.5,30.04,WSW,251,4.6,4.6,78,0.00,CLR,,0.00,WeatherDisplay:10.37,2013-04-24 08:06:00,
2013-04-24 03:11:00,27.3,21.3,30.04,WSW,251,3.5,3.5,78,0.00,CLR,,0.00,WeatherDisplay:10.37,2013-04-24 08:11:00,
2013-04-24 03:16:00,27.3,21.6,30.04,WSW,251,3.5,3.5,79,0.00,CLR,,0.00,WeatherDisplay:10.37,2013-04-24 08:16:00,
2013-04-24 03:21:00,27.3,21.6,30.04,WSW,251,2.3,2.3,79,0.00,CLR,,0.00,WeatherDisplay:10.37,2013-04-24 08:21:00,
2013-04-24 03:26:00,27.3,21.9,30.04,WSW,251,2.3,2.3,80,0.00,CLR,,0.00,WeatherDisplay:10.37,2013-04-24 08:26:00,
2013-04-24 03:31:00,27.2,21.8,30.04,WSW,251,3.5,3.5,80,0.00,CLR,,0.00,WeatherDisplay:10.37,2013-04-24 08:31:00,
2013-04-24 03:36:00,27.2,21.8,30.04,WSW,251,3.5,3.5,80,0.00,CLR,,0.00,WeatherDisplay:10.37,2013-04-24 08:36:00,
2013-04-24 03:41:00,27.0,21.7,30.04,WSW,251,2.3,2.3,80,0.00,CLR,,0.00,WeatherDisplay:10.37,2013-04-24 08:41:00,
2013-04-24 03:46:00,26.9,21.6,30.04,SW,225,4.6,4.6,80,0.00,CLR,,0.00,WeatherDisplay:10.37,2013-04-24 08:46:00,
2013-04-24 03:51:00,26.7,21.7,30.04,SW,225,3.5,3.5,81,0.00,CLR,,0.00,WeatherDisplay:10.37,2013-04-24 08:51:00,
2013-04-24 03:56:00,26.7,21.9,30.04,SW,225,3.5,3.5,82,0.00,CLR,,0.00,WeatherDisplay:10.37,2013-04-24 08:56:00,
2013-04-24 04:01:00,26.7,21.9,30.04,SW,225,3.5,3.5,82,0.00,CLR,,0.00,WeatherDisplay:10.37,2013-04-24 09:01:00,
2013-04-24 04:06:00,26.6,22.1,30.04,SW,225,4.0,4.0,83,0.00,CLR,,0.00,WeatherDisplay:10.37,2013-04-24 09:06:00,
2013-04-24 04:11:00,26.6,22.1,30.04,SW,225,3.5,3.5,83,0.00,CLR,,0.00,WeatherDisplay:10.37,2013-04-24 09:11:00,
2013-04-24 04:16:00,26.6,22.1,30.03,SW,225,2.3,2.3,83,0.00,CLR,,0.00,WeatherDisplay:10.37,2013-04-24 09:16:00,
2013-04-24 04:21:00,26.6,22.4,30.03,SW,225,2.3,2.3,84,0.00,CLR,,0.00,WeatherDisplay:10.37,2013-04-24 09:21:00,
2013-04-24 04:26:00,26.4,22.2,30.03,SW,225,2.3,2.3,84,0.00,CLR,,0.00,WeatherDisplay:10.37,2013-04-24 09:26:00,
2013-04-24 04:31:00,26.3,22.1,30.03,SW,225,2.3,2.3,84,0.00,CLR,,0.00,WeatherDisplay:10.37,2013-04-24 09:31:00,
2013-04-24 04:36:00,26.1,21.9,30.03,SW,225,0.0,0.0,84,0.00,CLR,,0.00,WeatherDisplay:10.37,2013-04-24 09:36:00,
2013-04-24 04:41:00,26.0,21.8,30.03,SW,225,2.3,2.3,84,0.00,CLR,,0.00,WeatherDisplay:10.37,2013-04-24 09:41:00,
2013-04-24 04:46:00,26.0,22.1,30.03,SW,225,0.0,0.0,85,0.00,CLR,,0.00,WeatherDisplay:10.37,2013-04-24 09:46:00,
2013-04-24 04:51:00,26.0,22.1,30.03,SW,225,2.3,2.3,85,0.00,CLR,,0.00,WeatherDisplay:10.37,2013-04-24 09:51:00,
2013-04-24 04:56:00,26.1,22.2,30.03,SW,225,3.5,3.5,85,0.00,CLR,,0.00,WeatherDisplay:10.37,2013-04-24 09:56:00,
2013-04-24 05:01:00,26.3,22.7,30.02,SW,225,3.5,3.5,86,0.00,CLR,,0.00,WeatherDisplay:10.37,2013-04-24 10:01:00,
2013-04-24 05:06:00,26.4,22.8,30.02,SW,225,4.6,4.6,86,0.00,CLR,,0.00,WeatherDisplay:10.37,2013-04-24 10:06:00,
2013-04-24 05:11:00,26.3,22.7,30.02,SW,225,3.5,3.5,86,0.00,CLR,,0.00,WeatherDisplay:10.37,2013-04-24 10:11:00,
2013-04-24 05:16:00,26.1,22.5,30.02,SW,225,3.5,3.5,86,0.00,CLR,,0.00,WeatherDisplay:10.37,2013-04-24 10:16:00,
2013-04-24 05:21:00,26.3,22.7,30.02,SW,225,3.5,3.5,86,0.00,CLR,,0.00,WeatherDisplay:10.37,2013-04-24 10:21:00,
2013-04-24 05:26:00,26.1,22.5,30.02,SW,223,5.8,5.8,86,0.00,CLR,,0.00,WeatherDisplay:10.37,2013-04-24 10:26:00,
2013-04-24 05:31:00,26.1,22.5,30.02,SW,235,4.6,4.6,86,0.00,CLR,,0.00,WeatherDisplay:10.37,2013-04-24 10:31:00,
2013-04-24 05:36:00,26.1,22.5,30.02,SW,235,3.5,3.5,86,0.00,CLR,,0.00,WeatherDisplay:10.37,2013-04-24 10:36:00,
2013-04-24 05:41:00,26.3,22.7,30.02,SW,225,3.5,3.5,86,0.00,CLR,,0.00,WeatherDisplay:10.37,2013-04-24 10:41:00,
2013-04-24 05:46:00,26.3,22.7,30.02,SW,225,3.5,3.5,86,0.00,CLR,,0.00,WeatherDisplay:10.37,2013-04-24 10:46:00,
2013-04-24 05:51:00,26.3,22.7,30.02,SW,225,4.0,4.0,86,0.00,CLR,,0.00,WeatherDisplay:10.37,2013-04-24 10:51:00,
2013-04-24 05:56:00,26.1,22.5,30.02,SW,225,4.0,4.0,86,0.00,CLR,,0.00,WeatherDisplay:10.37,2013-04-24 10:56:00,
2013-04-24 06:01:00,26.1,22.5,30.02,SW,225,2.3,2.3,86,0.00,CLR,,0.00,WeatherDisplay:10.37,2013-04-24 11:01:00,
2013-04-24 06:06:00,26.0,22.4,30.02,SW,225,4.6,4.6,86,0.00,CLR,,0.00,WeatherDisplay:10.37,2013-04-24 11:06:00,
2013-04-24 06:11:00,26.1,22.5,30.02,SW,225,3.5,3.5,86,0.00,CLR,,0.00,WeatherDisplay:10.37,2013-04-24 11:11:00,
2013-04-24 06:16:00,26.4,22.8,30.01,SSW,200,3.5,3.5,86,0.00,CLR,,0.00,WeatherDisplay:10.37,2013-04-24 11:16:00,
2013-04-24 06:21:00,26.3,22.4,30.01,SSW,200,4.0,4.0,85,0.00,CLR,,0.00,WeatherDisplay:10.37,2013-04-24 11:21:00,
2013-04-24 06:26:00,26.1,22.2,30.01,SSW,200,3.5,3.5,85,0.00,CLR,,0.00,WeatherDisplay:10.37,2013-04-24 11:26:00,
2013-04-24 06:31:00,26.0,22.1,30.01,SSW,200,3.5,3.5,85,0.00,CLR,,0.00,WeatherDisplay:10.37,2013-04-24 11:31:00,
2013-04-24 06:36:00,26.0,22.1,30.01,SSW,200,3.5,3.5,85,0.00,CLR,,0.00,WeatherDisplay:10.37,2013-04-24 11:36:00,
2013-04-24 06:41:00,26.1,22.2,30.01,SSW,200,3.5,3.5,85,0.00,CLR,,0.00,WeatherDisplay:10.37,2013-04-24 11:41:00,
2013-04-24 06:46:00,26.1,22.2,30.01,SSW,200,4.0,4.0,85,0.00,CLR,,0.00,WeatherDisplay:10.37,2013-04-24 11:46:00,
2013-04-24 06:51:00,26.3,22.4,30.01,SSW,200,4.6,4.6,85,0.00,CLR,,0.00,WeatherDisplay:10.37,2013-04-24 11:51:00,
2013-04-24 06:56:00,26.4,22.5,30.01,SSW,200,3.5,3.5,85,0.00,CLR,,0.00,WeatherDisplay:10.37,2013-04-24 11:56:00,
2013-04-24 07:01:00,26.6,22.4,30.01,SSW,200,4.6,4.6,84,0.00,CLR,,0.00,WeatherDisplay:10.37,2013-04-24 12:01:00,
2013-04-24 07:06:00,26.9,22.7,30.01,SSW,200,3.5,3.5,84,0.00,CLR,,0.00,WeatherDisplay:10.37,2013-04-24 12:06:00,
2013-04-24 07:11:00,27.0,22.5,30.01,SSW,200,3.5,3.5,83,0.00,CLR,,0.00,WeatherDisplay:10.37,2013-04-24 12:11:00,
2013-04-24 07:16:00,27.2,22.7,30.00,SSW,200,3.5,3.5,83,0.00,CLR,,0.00,WeatherDisplay:10.37,2013-04-24 12:16:00,
2013-04-24 07:21:00,27.5,23.0,30.00,SSW,200,3.5,3.5,83,0.00,CLR,,0.00,WeatherDisplay:10.37,2013-04-24 12:21:00,
2013-04-24 07:26:00,28.1,23.3,30.00,SSW,201,2.3,2.3,82,0.00,CLR,,0.00,WeatherDisplay:10.37,2013-04-24 12:26:00,
2013-04-24 07:31:00,28.5,23.4,30.00,SSW,200,3.5,3.5,81,0.00,CLR,,0.00,WeatherDisplay:10.37,2013-04-24 12:31:00,
2013-04-24 07:36:00,29.0,23.6,30.01,SW,215,6.9,6.9,80,0.00,CLR,,0.00,WeatherDisplay:10.37,2013-04-24 12:36:00,
2013-04-24 07:41:00,29.4,23.7,30.01,SSW,201,4.6,4.6,79,0.00,CLR,,0.00,WeatherDisplay:10.37,2013-04-24 12:41:00,
2013-04-24 07:46:00,29.8,23.5,30.00,SSW,208,5.0,5.0,77,0.00,CLR,,0.00,WeatherDisplay:10.37,2013-04-24 12:46:00,
2013-04-24 07:51:00,30.1,23.4,30.00,SW,231,5.8,5.8,76,0.00,CLR,,0.00,WeatherDisplay:10.37,2013-04-24 12:51:00,
2013-04-24 07:56:00,30.4,23.7,30.00,SW,218,6.9,6.9,76,0.00,CLR,,0.00,WeatherDisplay:10.37,2013-04-24 12:56:00,
2013-04-24 08:01:00,30.7,23.7,30.01,WSW,254,5.8,5.8,75,0.00,CLR,,0.00,WeatherDisplay:10.37,2013-04-24 13:01:00,
2013-04-24 08:06:00,31.0,23.7,30.01,SW,234,6.0,6.0,74,0.00,CLR,,0.00,WeatherDisplay:10.37,2013-04-24 13:06:00,
2013-04-24 08:11:00,31.5,24.2,30.01,SW,222,4.0,4.0,74,0.00,CLR,,0.00,WeatherDisplay:10.37,2013-04-24 13:11:00,
2013-04-24 08:16:00,31.8,23.8,30.00,SW,215,5.0,5.0,72,0.00,CLR,,0.00,WeatherDisplay:10.37,2013-04-24 13:16:00,
2013-04-24 08:21:00,32.2,23.8,30.00,SSW,199,6.9,6.9,71,0.00,CLR,,0.00,WeatherDisplay:10.37,2013-04-24 13:21:00,
2013-04-24 08:26:00,32.5,24.1,30.00,SW,233,3.5,3.5,71,0.00,CLR,,0.00,WeatherDisplay:10.37,2013-04-24 13:26:00,
2013-04-24 08:31:00,32.8,24.1,30.00,SW,228,9.2,9.2,70,0.00,CLR,,0.00,WeatherDisplay:10.37,2013-04-24 13:31:00,
2013-04-24 08:36:00,32.9,24.2,30.00,SW,221,7.0,7.0,70,0.00,CLR,,0.00,WeatherDisplay:10.37,2013-04-24 13:36:00,
2013-04-24 08:41:00,33.4,24.7,30.00,South,190,5.8,5.8,70,0.00,CLR,,0.00,WeatherDisplay:10.37,2013-04-24 13:41:00,
2013-04-24 08:46:00,33.8,24.7,30.00,SSW,211,5.8,5.8,69,0.00,CLR,,0.00,WeatherDisplay:10.37,2013-04-24 13:46:00,
2013-04-24 08:51:00,34.3,25.2,30.00,WSW,240,9.2,9.2,69,0.00,CLR,,0.00,WeatherDisplay:10.37,2013-04-24 13:51:00,
2013-04-24 08:56:00,34.4,25.3,30.00,SSW,209,6.9,6.9,69,0.00,CLR,,0.00,WeatherDisplay:10.37,2013-04-24 13:56:00,
2013-04-24 09:01:00,34.7,25.2,29.99,SW,216,4.6,4.6,68,0.00,CLR,,0.00,WeatherDisplay:10.37,2013-04-24 14:01:00,
2013-04-24 09:06:00,35.2,25.7,29.99,SW,215,4.6,4.6,68,0.00,CLR,,0.00,WeatherDisplay:10.37,2013-04-24 14:06:00,
2013-04-24 09:11:00,35.6,25.7,29.99,SSW,209,3.5,3.5,67,0.00,CLR,,0.00,WeatherDisplay:10.37,2013-04-24 14:11:00,
2013-04-24 09:16:00,35.8,25.9,29.99,SSW,203,5.8,5.8,67,0.00,CLR,,0.00,WeatherDisplay:10.37,2013-04-24 14:16:00,
2013-04-24 09:21:00,36.2,25.9,29.99,SSW,213,9.2,9.2,66,0.00,CLR,,0.00,WeatherDisplay:10.37,2013-04-24 14:21:00,
2013-04-24 09:26:00,36.5,25.8,29.99,SW,219,4.6,4.6,65,0.00,CLR,,0.00,WeatherDisplay:10.37,2013-04-24 14:26:00,
2013-04-24 09:31:00,37.0,26.3,29.99,SW,230,5.8,5.8,65,0.00,CLR,,0.00,WeatherDisplay:10.37,2013-04-24 14:31:00,
2013-04-24 09:36:00,37.5,26.4,29.99,SW,217,5.0,5.0,64,0.00,CLR,,0.00,WeatherDisplay:10.37,2013-04-24 14:36:00,
2013-04-24 09:41:00,37.8,25.9,29.99,WSW,243,6.0,6.0,62,0.00,CLR,,0.00,WeatherDisplay:10.37,2013-04-24 14:41:00,
2013-04-24 09:46:00,37.8,26.3,29.99,SW,231,5.8,5.8,63,0.00,CLR,,0.00,WeatherDisplay:10.37,2013-04-24 14:46:00,
2013-04-24 09:51:00,38.0,26.1,29.99,SSW,213,6.9,6.9,62,0.00,CLR,,0.00,WeatherDisplay:10.37,2013-04-24 14:51:00,
2013-04-24 09:56:00,38.2,25.9,29.99,SW,220,11.5,11.5,61,0.00,CLR,,0.00,WeatherDisplay:10.37,2013-04-24 14:56:00,
2013-04-24 10:01:00,38.6,26.3,29.99,SW,234,11.5,11.5,61,0.00,CLR,,0.00,WeatherDisplay:10.37,2013-04-24 15:01:00,
2013-04-24 10:09:00,39.2,26.9,29.99,WSW,257,6.9,6.9,61,0.00,CLR,,0.00,WeatherDisplay:10.37,2013-04-24 15:09:00,
2013-04-24 10:14:00,39.5,26.8,29.99,West,262,11.5,11.5,60,0.00,CLR,,0.00,WeatherDisplay:10.37,2013-04-24 15:14:00,
2013-04-24 10:19:00,39.5,27.2,29.99,West,263,11.0,11.0,61,0.00,CLR,,0.00,WeatherDisplay:10.37,2013-04-24 15:19:00,
2013-04-24 10:24:00,39.6,26.8,29.99,West,264,10.4,10.4,60,0.00,CLR,,0.00,WeatherDisplay:10.37,2013-04-24 15:24:00,
2013-04-24 10:29:00,39.9,27.1,29.99,SW,225,4.6,4.6,60,0.00,CLR,,0.00,WeatherDisplay:10.37,2013-04-24 15:29:00,
2013-04-24 10:34:00,40.3,27.1,29.99,WSW,248,2.3,2.3,59,0.00,CLR,,0.00,WeatherDisplay:10.37,2013-04-24 15:34:00,
2013-04-24 10:39:00,40.8,27.6,29.99,SW,232,10.4,10.4,59,0.00,CLR,,0.00,WeatherDisplay:10.37,2013-04-24 15:39:00,
2013-04-24 10:44:00,41.3,28.0,29.99,SW,221,7.0,7.0,59,0.00,CLR,,0.00,WeatherDisplay:10.37,2013-04-24 15:44:00,
2013-04-24 10:49:00,41.6,27.9,29.99,West,265,6.9,6.9,58,0.00,CLR,,0.00,WeatherDisplay:10.37,2013-04-24 15:49:00,
2013-04-24 10:54:00,41.8,27.7,29.99,WSW,244,11.5,11.5,57,0.00,CLR,,0.00,WeatherDisplay:10.37,2013-04-24 15:54:00,
2013-04-24 10:59:00,41.5,27.8,29.99,West,265,15.0,15.0,58,0.00,CLR,,0.00,WeatherDisplay:10.37,2013-04-24 15:59:00,
2013-04-24 11:04:00,41.8,28.1,29.99,SW,214,11.5,11.5,58,0.00,CLR,,0.00,WeatherDisplay:10.37,2013-04-24 16:04:00,
2013-04-24 11:09:00,41.5,27.4,29.99,SSW,199,10.4,10.4,57,0.00,CLR,,0.00,WeatherDisplay:10.37,2013-04-24 16:09:00,
2013-04-24 11:14:00,41.9,28.2,29.99,WNW,291,11.5,11.5,58,0.00,CLR,,0.00,WeatherDisplay:10.37,2013-04-24 16:14:00,
2013-04-24 11:19:00,42.5,27.9,29.99,West,271,9.2,9.2,56,0.00,CLR,,0.00,WeatherDisplay:10.37,2013-04-24 16:19:00,
2013-04-24 11:24:00,42.8,28.6,29.99,SW,236,12.7,12.7,57,0.00,CLR,,0.00,WeatherDisplay:10.37,2013-04-24 16:24:00,
2013-04-24 11:29:00,43.2,28.1,29.98,SW,228,5.8,5.8,55,0.00,CLR,,0.00,WeatherDisplay:10.37,2013-04-24 16:29:00,
2013-04-24 11:34:00,43.6,28.9,29.98,SSW,211,11.5,11.5,56,0.00,CLR,,0.00,WeatherDisplay:10.37,2013-04-24 16:34:00,
2013-04-24 11:39:00,43.6,28.0,29.98,WSW,252,10.4,10.4,54,0.00,CLR,,0.00,WeatherDisplay:10.37,2013-04-24 16:39:00,
2013-04-24 11:44:00,43.6,28.5,29.98,SSW,199,14.0,14.0,55,0.00,CLR,,0.00,WeatherDisplay:10.37,2013-04-24 16:44:00,
2013-04-24 11:49:00,43.9,28.8,29.98,SSW,211,6.9,6.9,55,0.00,CLR,,0.00,WeatherDisplay:10.37,2013-04-24 16:49:00,
2013-04-24 11:54:00,44.2,29.0,29.98,West,261,10.4,10.4,55,0.00,CLR,,0.00,WeatherDisplay:10.37,2013-04-24 16:54:00,
2013-04-24 11:59:00,44.5,29.3,29.98,SSW,206,6.9,6.9,55,0.00,CLR,,0.00,WeatherDisplay:10.37,2013-04-24 16:59:00,
2013-04-24 12:04:00,45.1,29.0,29.98,WSW,240,10.4,10.4,53,0.00,CLR,,0.00,WeatherDisplay:10.37,2013-04-24 17:04:00,
2013-04-24 12:09:00,45.2,29.1,29.98,SSW,210,11.5,11.5,53,0.00,CLR,,0.00,WeatherDisplay:10.37,2013-04-24 17:09:00,
2013-04-24 12:14:00,44.6,28.5,29.97,SW,226,13.8,13.8,53,0.00,CLR,,0.00,WeatherDisplay:10.37,2013-04-24 17:14:00,
2013-04-24 12:19:00,44.2,28.6,29.97,WSW,246,12.7,12.7,54,0.00,CLR,,0.00,WeatherDisplay:10.37,2013-04-24 17:19:00,
2013-04-24 12:24:00,44.5,29.3,29.97,SW,232,15.0,15.0,55,0.00,CLR,,0.00,WeatherDisplay:10.37,2013-04-24 17:24:00,
2013-04-24 12:29:00,44.6,28.5,29.97,WSW,246,12.7,12.7,53,0.00,CLR,,0.00,WeatherDisplay:10.37,2013-04-24 17:29:00,
2013-04-24 12:34:00,44.6,29.4,29.97,WSW,238,8.1,8.1,55,0.00,CLR,,0.00,WeatherDisplay:10.37,2013-04-24 17:34:00,
2013-04-24 12:39:00,44.9,29.2,29.97,SW,231,12.7,12.7,54,0.00,CLR,,0.00,WeatherDisplay:10.37,2013-04-24 17:39:00,
2013-04-24 12:44:00,44.9,29.2,29.97,SSW,196,16.1,16.1,54,0.00,CLR,,0.00,WeatherDisplay:10.37,2013-04-24 17:44:00,
2013-04-24 12:49:00,44.9,29.2,29.97,SSW,202,19.6,19.6,54,0.00,CLR,,0.00,WeatherDisplay:10.37,2013-04-24 17:49:00,
2013-04-24 12:54:00,45.1,29.4,29.97,West,276,18.4,18.4,54,0.00,CLR,,0.00,WeatherDisplay:10.37,2013-04-24 17:54:00,
2013-04-24 12:59:00,44.9,29.2,29.96,WSW,257,16.1,16.1,54,0.00,CLR,,0.00,WeatherDisplay:10.37,2013-04-24 17:59:00,
2013-04-24 13:04:00,45.1,29.0,29.96,SW,235,12.7,12.7,53,0.00,CLR,,0.00,WeatherDisplay:10.37,2013-04-24 18:04:00,
2013-04-24 13:09:00,45.7,29.5,29.96,SW,227,9.2,9.2,53,0.00,CLR,,0.00,WeatherDisplay:10.37,2013-04-24 18:09:00,
2013-04-24 13:14:00,46.5,28.8,29.96,WSW,238,9.2,9.2,50,0.00,CLR,,0.00,WeatherDisplay:10.37,2013-04-24 18:14:00,
2013-04-24 13:19:00,46.7,28.5,29.95,West,263,11.5,11.5,49,0.00,CLR,,0.00,WeatherDisplay:10.37,2013-04-24 18:19:00,
2013-04-24 13:24:00,46.7,28.5,29.96,SSW,198,18.4,18.4,49,0.00,CLR,,0.00,WeatherDisplay:10.37,2013-04-24 18:24:00,
2013-04-24 13:29:00,46.5,29.3,29.95,SW,225,13.8,13.8,51,0.00,CLR,,0.00,WeatherDisplay:10.37,2013-04-24 18:29:00,
2013-04-24 13:34:00,46.5,29.3,29.95,SW,221,19.6,19.6,51,0.00,CLR,,0.00,WeatherDisplay:10.37,2013-04-24 18:34:00,
2013-04-24 13:39:00,46.2,29.5,29.95,SSW,202,16.1,16.1,52,0.00,CLR,,0.00,WeatherDisplay:10.37,2013-04-24 18:39:00,
2013-04-24 13:44:00,46.8,29.1,29.94,SW,218,17.3,17.3,50,0.00,CLR,,0.00,WeatherDisplay:10.37,2013-04-24 18:44:00,
2013-04-24 13:49:00,47.1,29.4,29.94,SSW,213,15.0,15.0,50,0.00,CLR,,0.00,WeatherDisplay:10.37,2013-04-24 18:49:00,
2013-04-24 13:54:00,47.1,29.4,29.94,SW,228,21.9,21.9,50,0.00,CLR,,0.00,WeatherDisplay:10.37,2013-04-24 18:54:00,
2013-04-24 13:59:00,47.1,29.9,29.94,SSW,212,18.4,18.4,51,0.00,SCT,,0.00,WeatherDisplay:10.37,2013-04-24 18:59:00,
2013-04-24 14:04:00,47.4,30.2,29.94,West,262,17.3,17.3,51,0.00,SCT,,0.00,WeatherDisplay:10.37,2013-04-24 19:04:00,
2013-04-24 14:10:00,47.4,29.7,29.94,WSW,238,20.7,20.7,50,0.00,SCT,,0.00,WeatherDisplay:10.37,2013-04-24 19:10:00,
2013-04-24 14:15:00,47.9,29.1,29.94,SSW,192,25.3,25.3,48,0.00,SCT,,0.00,WeatherDisplay:10.37,2013-04-24 19:15:00,
2013-04-24 14:20:00,47.6,29.4,29.94,South,171,18.0,18.0,49,0.00,SCT,,0.00,WeatherDisplay:10.37,2013-04-24 19:20:00,
2013-04-24 14:25:00,47.3,28.6,29.94,SSW,213,22.0,22.0,48,0.00,SCT,,0.00,WeatherDisplay:10.37,2013-04-24 19:25:00,
2013-04-24 14:30:00,47.0,29.3,29.93,SSW,209,16.1,16.1,50,0.00,SCT,,0.00,WeatherDisplay:10.37,2013-04-24 19:30:00,
2013-04-24 14:35:00,47.1,28.4,29.93,SW,221,24.0,24.0,48,0.00,SCT,,0.00,WeatherDisplay:10.37,2013-04-24 19:35:00,
2013-04-24 14:40:00,47.3,28.6,29.93,SW,214,16.1,16.1,48,0.00,SCT,,0.00,WeatherDisplay:10.37,2013-04-24 19:40:00,
2013-04-24 14:45:00,48.0,27.1,29.93,SSW,192,18.4,18.4,44,0.00,CLR,,0.00,WeatherDisplay:10.37,2013-04-24 19:45:00,
2013-04-24 14:50:00,47.6,27.8,29.93,SW,224,19.6,19.6,46,0.00,CLR,,0.00,WeatherDisplay:10.37,2013-04-24 19:50:00,
2013-04-24 14:55:00,47.4,28.7,29.93,SW,225,20.7,20.7,48,0.00,CLR,,0.00,WeatherDisplay:10.37,2013-04-24 19:55:00,
2013-04-24 15:00:00,47.6,26.7,29.93,SW,234,21.9,21.9,44,0.00,CLR,,0.00,WeatherDisplay:10.37,2013-04-24 20:00:00,
2013-04-24 15:05:00,47.7,27.4,29.93,South,186,15.0,15.0,45,0.00,CLR,,0.00,WeatherDisplay:10.37,2013-04-24 20:05:00,
2013-04-24 15:10:00,47.7,25.7,29.93,SW,223,19.6,19.6,42,0.00,CLR,,0.00,WeatherDisplay:10.37,2013-04-24 20:10:00,
2013-04-24 15:15:00,47.7,25.7,29.93,South,185,24.2,24.2,42,0.00,CLR,,0.00,WeatherDisplay:10.37,2013-04-24 20:15:00,
2013-04-24 15:20:00,48.3,27.4,29.93,SW,217,16.1,16.1,44,0.00,CLR,,0.00,WeatherDisplay:10.37,2013-04-24 20:20:00,
2013-04-24 15:25:00,48.0,27.6,29.93,SW,215,19.6,19.6,45,0.00,CLR,,0.00,WeatherDisplay:10.37,2013-04-24 20:25:00,
2013-04-24 15:30:00,47.7,26.8,29.93,SW,223,19.6,19.6,44,0.00,CLR,,0.00,WeatherDisplay:10.37,2013-04-24 20:30:00,
2013-04-24 15:35:00,46.7,27.5,29.93,SW,215,24.2,24.2,47,0.00,CLR,,0.00,WeatherDisplay:10.37,2013-04-24 20:35:00,
2013-04-24 15:40:00,47.0,27.8,29.93,SW,216,16.0,16.0,47,0.00,CLR,,0.00,WeatherDisplay:10.37,2013-04-24 20:40:00,
2013-04-24 15:45:00,47.0,28.3,29.92,SW,217,23.0,23.0,48,0.00,CLR,,0.00,WeatherDisplay:10.37,2013-04-24 20:45:00,
2013-04-24 15:50:00,47.0,28.3,29.92,SW,215,19.6,19.6,48,0.00,CLR,,0.00,WeatherDisplay:10.37,2013-04-24 20:50:00,
2013-04-24 15:55:00,47.4,28.7,29.92,South,191,17.3,17.3,48,0.00,CLR,,0.00,WeatherDisplay:10.37,2013-04-24 20:55:00,
2013-04-24 16:00:00,47.4,29.2,29.92,South,178,15.0,15.0,49,0.00,CLR,,0.00,WeatherDisplay:10.37,2013-04-24 21:00:00,
2013-04-24 16:05:00,47.6,29.4,29.92,SSW,206,18.4,18.4,49,0.00,CLR,,0.00,WeatherDisplay:10.37,2013-04-24 21:05:00,
2013-04-24 16:10:00,48.0,29.7,29.92,SSW,212,19.6,19.6,49,0.00,CLR,,0.00,WeatherDisplay:10.37,2013-04-24 21:10:00,
2013-04-24 16:15:00,47.9,29.1,29.91,WSW,251,18.4,18.4,48,0.00,CLR,,0.00,WeatherDisplay:10.37,2013-04-24 21:15:00,
2013-04-24 16:20:00,48.2,28.9,29.91,West,260,12.0,13.1,47,0.00,CLR,,0.00,WeatherDisplay:10.37,2013-04-24 21:20:00,
2013-04-24 16:25:00,48.0,29.2,29.91,SW,221,18.4,18.4,48,0.00,CLR,,0.00,WeatherDisplay:10.37,2013-04-24 21:25:00,
2013-04-24 16:30:00,47.6,28.3,29.91,SW,225,19.6,19.6,47,0.00,CLR,,0.00,WeatherDisplay:10.37,2013-04-24 21:30:00,
2013-04-24 16:35:00,48.0,28.7,29.91,SSW,199,19.6,19.6,47,0.00,CLR,,0.00,WeatherDisplay:10.37,2013-04-24 21:35:00,
2013-04-24 16:40:00,47.7,28.9,29.91,WSW,254,18.4,18.4,48,0.00,CLR,,0.00,WeatherDisplay:10.37,2013-04-24 21:40:00,
2013-04-24 16:45:00,48.0,29.2,29.90,SW,236,19.6,19.6,48,0.00,CLR,,0.00,WeatherDisplay:10.37,2013-04-24 21:45:00,
2013-04-24 16:50:00,47.7,29.5,29.90,SW,219,20.7,20.7,49,0.00,CLR,,0.00,WeatherDisplay:10.37,2013-04-24 21:50:00,
2013-04-24 16:55:00,47.9,29.6,29.90,SW,232,16.0,16.0,49,0.00,CLR,,0.00,WeatherDisplay:10.37,2013-04-24 21:55:00,
2013-04-24 17:00:00,47.4,29.7,29.90,SSW,196,14.0,14.0,50,0.00,CLR,,0.00,WeatherDisplay:10.37,2013-04-24 22:00:00,
2013-04-24 17:05:00,47.0,29.3,29.90,WSW,242,11.5,11.5,50,0.00,CLR,,0.00,WeatherDisplay:10.37,2013-04-24 22:05:00,
2013-04-24 17:10:00,46.8,29.6,29.90,SW,226,13.8,13.8,51,0.00,CLR,,0.00,WeatherDisplay:10.37,2013-04-24 22:10:00,
2013-04-24 17:15:00,47.0,29.8,29.89,SW,223,11.5,11.5,51,0.00,CLR,,0.00,WeatherDisplay:10.37,2013-04-24 22:15:00,
2013-04-24 17:20:00,47.1,29.4,29.89,SW,224,12.7,12.7,50,0.00,CLR,,0.00,WeatherDisplay:10.37,2013-04-24 22:20:00,
2013-04-24 17:25:00,47.0,30.3,29.89,SW,232,11.5,11.5,52,0.00,CLR,,0.00,WeatherDisplay:10.37,2013-04-24 22:25:00,
2013-04-24 17:30:00,46.8,29.6,29.89,WSW,244,13.8,13.8,51,0.00,CLR,,0.00,WeatherDisplay:10.37,2013-04-24 22:30:00,
2013-04-24 17:35:00,46.8,30.1,29.89,SW,219,5.8,5.8,52,0.00,CLR,,0.00,WeatherDisplay:10.37,2013-04-24 22:35:00,
2013-04-24 17:40:00,46.8,28.6,29.89,SSW,206,12.7,12.7,49,0.00,CLR,,0.00,WeatherDisplay:10.37,2013-04-24 22:40:00,
2013-04-24 17:45:00,47.0,29.8,29.89,West,273,6.0,6.0,51,0.00,CLR,,0.00,WeatherDisplay:10.37,2013-04-24 22:45:00,
2013-04-24 17:50:00,45.7,30.4,29.89,WSW,244,5.8,5.8,55,0.00,CLR,,0.00,WeatherDisplay:10.37,2013-04-24 22:50:00,
2013-04-24 17:55:00,44.8,27.8,29.89,West,265,11.5,11.5,51,0.00,CLR,,0.00,WeatherDisplay:10.37,2013-04-24 22:55:00,
2013-04-24 18:00:00,44.6,29.9,29.89,WNW,284,2.3,2.3,56,0.00,BKN,,0.00,WeatherDisplay:10.37,2013-04-24 23:00:00,
2013-04-24 18:05:00,44.6,27.6,29.89,WNW,282,3.5,3.5,51,0.00,BKN,,0.00,WeatherDisplay:10.37,2013-04-24 23:05:00,
2013-04-24 18:10:00,44.8,27.8,29.89,NW,309,11.5,11.5,51,0.00,BKN,,0.00,WeatherDisplay:10.37,2013-04-24 23:10:00,
2013-04-24 18:15:00,44.6,28.5,29.89,West,277,5.8,5.8,53,0.00,BKN,,0.00,WeatherDisplay:10.37,2013-04-24 23:15:00,
2013-04-24 18:20:00,44.3,28.7,29.89,NNW,327,10.4,10.4,54,0.00,BKN,,0.00,WeatherDisplay:10.37,2013-04-24 23:20:00,
2013-04-24 18:25:00,44.3,28.7,29.89,West,277,6.9,6.9,54,0.00,BKN,,0.00,WeatherDisplay:10.37,2013-04-24 23:25:00,
2013-04-24 18:30:00,44.2,28.6,29.89,West,275,11.5,11.5,54,0.00,OVC,,0.00,WeatherDisplay:10.37,2013-04-24 23:30:00,
2013-04-24 18:35:00,44.2,28.6,29.89,West,264,6.9,6.9,54,0.00,OVC,,0.00,WeatherDisplay:10.37,2013-04-24 23:35:00,
2013-04-24 18:40:00,44.1,28.9,29.89,WNW,295,4.6,4.6,55,0.00,OVC,,0.00,WeatherDisplay:10.37,2013-04-24 23:40:00,
2013-04-24 18:45:00,43.9,28.8,29.89,West,273,8.1,8.1,55,0.00,OVC,,0.00,WeatherDisplay:10.37,2013-04-24 23:45:00,
2013-04-24 18:50:00,43.8,28.7,29.89,West,261,6.9,6.9,55,0.00,OVC,,0.00,WeatherDisplay:10.37,2013-04-24 23:50:00,
2013-04-24 18:55:00,43.2,31.1,29.89,SW,226,13.8,13.8,62,0.00,OVC,,0.00,WeatherDisplay:10.37,2013-04-24 23:55:00,
2013-04-24 19:00:00,41.6,32.9,29.91,West,269,5.8,5.8,71,0.00,OVC,,0.00,WeatherDisplay:10.37,2013-04-25 00:00:00,
2013-04-24 19:05:00,40.3,33.3,29.91,North,351,13.8,13.8,76,0.00,OVC,,0.00,WeatherDisplay:10.37,2013-04-25 00:05:00,
2013-04-24 19:10:00,38.8,33.5,29.91,NW,307,11.5,11.5,81,0.01,RA,,0.01,WeatherDisplay:10.37,2013-04-25 00:10:00,
2013-04-24 19:15:00,38.0,33.3,29.91,NW,322,11.5,11.5,83,0.02,RA,,0.02,WeatherDisplay:10.37,2013-04-25 00:15:00,
2013-04-24 19:20:00,37.5,33.4,29.91,WNW,298,12.7,12.7,85,0.02,RA,,0.02,WeatherDisplay:10.37,2013-04-25 00:20:00,
2013-04-24 19:25:00,37.2,33.4,29.91,NW,323,5.8,5.8,86,0.02,OVC,,0.02,WeatherDisplay:10.37,2013-04-25 00:25:00,
2013-04-24 19:30:00,37.0,33.2,29.91,NNW,338,10.4,10.4,86,0.02,OVC,,0.02,WeatherDisplay:10.37,2013-04-25 00:30:00,
2013-04-24 19:35:00,36.8,33.0,29.91,North,9,10.4,10.4,86,0.02,OVC,,0.02,WeatherDisplay:10.37,2013-04-25 00:35:00,
2013-04-24 19:40:00,36.5,33.0,29.91,North,350,9.2,9.2,87,0.02,OVC,,0.02,WeatherDisplay:10.37,2013-04-25 00:40:00,
2013-04-24 19:45:00,36.2,32.7,29.91,NNW,327,10.0,10.0,87,0.02,-DZ,,0.02,WeatherDisplay:10.37,2013-04-25 00:45:00,
2013-04-24 19:50:00,36.0,32.5,29.91,NW,321,10.4,10.4,87,0.02,-DZ,,0.02,WeatherDisplay:10.37,2013-04-25 00:50:00,
2013-04-24 19:55:00,36.0,32.8,29.91,NW,321,6.9,6.9,88,0.02,-DZ,,0.02,WeatherDisplay:10.37,2013-04-25 00:55:00,
2013-04-24 20:00:00,36.0,32.8,29.91,NNW,345,5.0,5.0,88,0.02,OVC,,0.02,WeatherDisplay:10.37,2013-04-25 01:00:00,
2013-04-24 20:05:00,35.9,32.7,29.91,NNW,343,3.5,3.5,88,0.02,OVC,,0.02,WeatherDisplay:10.37,2013-04-25 01:05:00,
2013-04-24 20:10:00,35.9,32.7,29.91,NNW,341,3.5,3.5,88,0.01,OVC,,0.02,WeatherDisplay:10.37,2013-04-25 01:10:00,
2013-04-24 20:15:00,35.8,32.6,29.92,NW,308,5.8,5.8,88,0.00,OVC,,0.02,WeatherDisplay:10.37,2013-04-25 01:15:00,
2013-04-24 20:20:00,35.6,32.4,29.92,NW,308,3.5,3.5,88,0.00,OVC,,0.02,WeatherDisplay:10.37,2013-04-25 01:20:00,
2013-04-24 20:25:00,35.5,32.3,29.92,NW,308,2.3,2.3,88,0.00,OVC,,0.02,WeatherDisplay:10.37,2013-04-25 01:25:00,
2013-04-24 20:30:00,35.6,32.7,29.92,NW,308,2.3,2.3,89,0.00,OVC,,0.02,WeatherDisplay:10.37,2013-04-25 01:30:00,
2013-04-24 20:35:00,35.6,32.7,29.92,NW,308,2.3,2.3,89,0.00,OVC,,0.02,WeatherDisplay:10.37,2013-04-25 01:35:00,
2013-04-24 20:40:00,35.6,32.7,29.92,NW,308,3.5,3.5,89,0.00,OVC,,0.02,WeatherDisplay:10.37,2013-04-25 01:40:00,
2013-04-24 20:45:00,35.6,32.7,29.93,NW,308,3.5,3.5,89,0.00,OVC,,0.02,WeatherDisplay:10.37,2013-04-25 01:45:00,
2013-04-24 20:50:00,35.6,32.7,29.93,WSW,255,3.5,3.5,89,0.00,OVC,,0.02,WeatherDisplay:10.37,2013-04-25 01:50:00,
2013-04-24 20:55:00,35.6,32.7,29.93,WSW,255,3.5,3.5,89,0.00,OVC,,0.02,WeatherDisplay:10.37,2013-04-25 01:55:00,
2013-04-24 21:00:00,35.6,32.7,29.93,WSW,255,3.5,3.5,89,0.00,OVC,,0.02,WeatherDisplay:10.37,2013-04-25 02:00:00,
2013-04-24 21:05:00,35.5,32.6,29.93,WSW,255,3.5,3.5,89,0.00,OVC,,0.02,WeatherDisplay:10.37,2013-04-25 02:05:00,
2013-04-24 21:10:00,35.3,32.4,29.93,WSW,241,4.6,4.6,89,0.00,OVC,,0.02,WeatherDisplay:10.37,2013-04-25 02:10:00,
2013-04-24 21:15:00,35.3,32.7,29.94,WSW,248,3.5,3.5,90,0.00,OVC,,0.02,WeatherDisplay:10.37,2013-04-25 02:15:00,
2013-04-24 21:20:00,35.2,32.6,29.94,West,261,3.5,3.5,90,0.00,OVC,,0.02,WeatherDisplay:10.37,2013-04-25 02:20:00,
2013-04-24 21:25:00,35.2,32.6,29.94,West,259,5.8,5.8,90,0.00,OVC,,0.02,WeatherDisplay:10.37,2013-04-25 02:25:00,
2013-04-24 21:30:00,35.2,32.6,29.94,West,261,9.2,9.2,90,0.00,BKN,,0.02,WeatherDisplay:10.37,2013-04-25 02:30:00,
2013-04-24 21:35:00,35.0,32.1,29.94,WSW,247,3.5,3.5,89,0.00,BKN,,0.02,WeatherDisplay:10.37,2013-04-25 02:35:00,
2013-04-24 21:40:00,35.0,32.4,29.94,WSW,250,3.0,3.0,90,0.00,BKN,,0.02,WeatherDisplay:10.37,2013-04-25 02:40:00,
2013-04-24 21:45:00,35.0,32.4,29.95,WSW,253,3.5,3.5,90,0.00,SCT,,0.02,WeatherDisplay:10.37,2013-04-25 02:45:00,
2013-04-24 21:50:00,35.0,32.4,29.95,WSW,256,5.8,5.8,90,0.00,SCT,,0.02,WeatherDisplay:10.37,2013-04-25 02:50:00,
2013-04-24 21:55:00,35.0,32.1,29.95,West,263,4.6,4.6,89,0.00,SCT,,0.02,WeatherDisplay:10.37,2013-04-25 02:55:00,
2013-04-24 22:00:00,34.9,32.0,29.95,West,263,3.5,3.5,89,0.00,SCT,,0.02,WeatherDisplay:10.37,2013-04-25 03:00:00,
2013-04-24 22:05:00,34.9,32.0,29.95,West,263,3.5,3.5,89,0.00,SCT,,0.02,WeatherDisplay:10.37,2013-04-25 03:05:00,
2013-04-24 22:10:00,34.9,32.3,29.95,SW,233,4.0,4.0,90,0.00,SCT,,0.02,WeatherDisplay:10.37,2013-04-25 03:10:00,
2013-04-24 22:15:00,35.0,32.4,29.96,SW,233,3.5,3.5,90,0.00,SCT,,0.02,WeatherDisplay:10.37,2013-04-25 03:15:00,
2013-04-24 22:20:00,35.2,32.6,29.96,WSW,240,3.5,3.5,90,0.00,SCT,,0.02,WeatherDisplay:10.37,2013-04-25 03:20:00,
2013-04-24 22:25:00,35.3,32.7,29.96,WSW,238,5.8,5.8,90,0.00,SCT,,0.02,WeatherDisplay:10.37,2013-04-25 03:25:00,
2013-04-24 22:30:00,35.5,32.9,29.96,SSW,201,9.2,9.2,90,0.00,CLR,,0.02,WeatherDisplay:10.37,2013-04-25 03:30:00,
2013-04-24 22:35:00,35.6,32.7,29.96,WSW,250,12.7,12.7,89,0.00,CLR,,0.02,WeatherDisplay:10.37,2013-04-25 03:35:00,
2013-04-24 22:40:00,35.8,32.9,29.96,WSW,244,7.0,7.0,89,0.00,CLR,,0.02,WeatherDisplay:10.37,2013-04-25 03:40:00,
2013-04-24 22:45:00,35.9,33.0,29.96,WSW,252,6.9,6.9,89,0.00,OVC,,0.02,WeatherDisplay:10.37,2013-04-25 03:45:00,
2013-04-24 22:50:00,35.9,33.0,29.96,West,262,8.0,8.0,89,0.00,OVC,,0.02,WeatherDisplay:10.37,2013-04-25 03:50:00,
2013-04-24 22:55:00,36.0,32.8,29.96,West,266,5.0,5.0,88,0.00,OVC,,0.02,WeatherDisplay:10.37,2013-04-25 03:55:00,
2013-04-24 23:00:00,36.2,33.0,29.96,WSW,248,9.2,9.2,88,0.00,OVC,,0.02,WeatherDisplay:10.37,2013-04-25 04:00:00,
2013-04-24 23:01:00,36.2,33.0,29.96,West,267,3.5,3.5,88,0.00,OVC,,0.02,WeatherDisplay:10.37,2013-04-25 04:01:00,
2013-04-24 23:06:00,36.2,32.7,29.96,West,262,8.1,8.1,87,0.00,OVC,,0.02,WeatherDisplay:10.37,2013-04-25 04:06:00,
2013-04-24 23:11:00,36.3,32.8,29.96,West,268,6.9,6.9,87,0.00,OVC,,0.02,WeatherDisplay:10.37,2013-04-25 04:11:00,
2013-04-24 23:16:00,36.2,32.7,29.96,WSW,253,5.8,5.8,87,0.00,OVC,,0.02,WeatherDisplay:10.37,2013-04-25 04:16:00,
2013-04-24 23:21:00,36.3,32.5,29.96,West,267,9.2,9.2,86,0.00,OVC,,0.02,WeatherDisplay:10.37,2013-04-25 04:21:00,
2013-04-24 23:27:00,36.3,32.5,29.96,WSW,249,9.2,9.2,86,0.00,OVC,,0.02,WeatherDisplay:10.37,2013-04-25 04:27:00,
2013-04-24 23:32:00,36.3,32.5,29.96,WNW,282,6.9,6.9,86,0.00,OVC,,0.02,WeatherDisplay:10.37,2013-04-25 04:32:00,
2013-04-24 23:37:00,36.2,32.1,29.96,West,267,5.0,5.0,85,0.00,OVC,,0.02,WeatherDisplay:10.37,2013-04-25 04:37:00,
2013-04-24 23:42:00,36.0,31.9,29.96,West,281,6.0,6.0,85,0.00,OVC,,0.02,WeatherDisplay:10.37,2013-04-25 04:42:00,
2013-04-24 23:47:00,35.9,31.8,29.96,NW,308,4.0,4.0,85,0.00,OVC,,0.02,WeatherDisplay:10.37,2013-04-25 04:47:00,
2013-04-24 23:52:00,35.8,31.7,29.96,WNW,284,4.6,4.6,85,0.00,OVC,,0.02,WeatherDisplay:10.37,2013-04-25 04:52:00,
2013-04-24 23:57:00,35.6,31.2,29.96,WNW,291,6.9,6.9,84,0.00,OVC,,0.02,WeatherDisplay:10.37,2013-04-25 04:57:00,